createdAt,value
2023-05-18T16:01:52.229Z,121.50
2023-05-18T16:03:24.379Z,99.00
2023-05-18T16:04:56.517Z,102.50
2023-05-18T16:06:28.826Z,89.25
2023-05-18T16:08:00.971Z,88.00
2023-05-18T16:09:32.935Z,96.50
2023-05-18T16:11:07.154Z,92.75
2023-05-18T16:12:39.353Z,90.75
2023-05-18T16:14:11.672Z,88.25
2023-05-18T16:15:43.668Z,89.25
2023-05-18T16:17:15.998Z,90.00
2023-05-18T16:18:48.413Z,94.75
2023-05-18T16:20:21.247Z,90.00
2023-05-18T16:21:53.210Z,83.75
2023-05-18T16:23:25.229Z,88.00
2023-05-18T16:24:59.138Z,87.75
2023-05-18T16:26:32.556Z,91.50
2023-05-18T16:28:04.669Z,94.50
2023-05-18T16:29:36.623Z,84.75
2023-05-18T16:31:11.076Z,91.50
2023-05-18T16:32:44.599Z,94.25
2023-05-18T16:34:16.585Z,103.50
2023-05-18T16:35:48.560Z,94.00
2023-05-18T16:37:20.496Z,103.50
2023-05-18T16:38:53.183Z,106.00
2023-05-18T16:40:25.107Z,97.25
2023-05-18T16:41:57.073Z,93.25
2023-05-18T16:43:28.969Z,102.25
2023-05-18T16:45:01.046Z,98.00
2023-05-18T16:46:32.974Z,106.25
2023-05-18T16:48:05.208Z,91.75
2023-05-18T16:49:37.262Z,107.25
2023-05-18T16:51:09.869Z,100.00
2023-05-18T16:52:41.882Z,110.25
2023-05-18T16:54:13.889Z,103.25
2023-05-18T16:55:46.295Z,100.25
2023-05-18T16:57:18.223Z,98.75
2023-05-18T16:58:52.624Z,93.00
2023-05-18T17:00:24.821Z,88.50
2023-05-18T17:01:56.820Z,93.00
2023-05-18T17:03:29.560Z,95.75
2023-05-18T17:05:01.453Z,105.25
2023-05-18T17:06:33.547Z,103.00
2023-05-18T17:08:05.456Z,100.50
2023-05-18T17:09:40.216Z,99.50
2023-05-18T17:11:12.468Z,102.75
2023-05-18T17:12:44.448Z,97.50
2023-05-18T17:14:16.380Z,98.50
2023-05-18T17:15:48.380Z,103.25
2023-05-18T17:17:20.492Z,102.00
2023-05-18T17:18:54.815Z,108.00
2023-05-18T17:20:26.858Z,99.50
2023-05-18T17:21:58.890Z,130.50
2023-05-18T17:23:31.088Z,100.50
2023-05-18T17:25:03.341Z,106.00
2023-05-18T17:26:35.279Z,101.50
2023-05-18T17:28:07.329Z,103.50
2023-05-18T17:29:39.250Z,97.50
2023-05-18T17:31:11.369Z,87.75
2023-05-18T17:32:45.674Z,93.50
2023-05-18T17:34:17.795Z,93.50
2023-05-18T17:35:49.936Z,86.75
2023-05-18T17:37:22.112Z,84.00
2023-05-18T17:38:54.588Z,93.00
2023-05-18T17:40:26.716Z,88.25
2023-05-18T17:42:00.290Z,86.00
2023-05-18T17:43:32.300Z,83.50
2023-05-18T17:45:04.640Z,83.00
2023-05-18T17:46:36.654Z,77.00
2023-05-18T17:48:09.014Z,80.20
2023-05-18T17:49:41.146Z,83.50
2023-05-18T17:51:13.218Z,70.20
2023-05-18T17:52:45.299Z,70.40
2023-05-18T17:54:17.400Z,74.20
2023-05-18T17:55:49.555Z,82.20
2023-05-18T17:57:23.103Z,80.60
2023-05-18T17:58:55.091Z,82.25
2023-05-18T18:00:27.237Z,77.00
2023-05-18T18:01:59.380Z,79.00
2023-05-18T18:03:32.726Z,77.80
2023-05-18T18:05:04.832Z,71.80
2023-05-18T18:06:36.899Z,72.20
2023-05-18T18:08:08.988Z,73.00
2023-05-18T18:09:41.109Z,70.60
2023-05-18T18:11:13.079Z,69.60
2023-05-18T18:12:45.311Z,67.80
2023-05-18T18:14:17.588Z,70.60
2023-05-18T18:15:49.706Z,68.25
2023-05-18T18:17:23.316Z,88.25
2023-05-18T18:18:56.009Z,75.40
2023-05-18T18:20:27.933Z,69.40
2023-05-18T18:21:59.897Z,70.75
2023-05-18T18:23:31.939Z,78.00
2023-05-18T18:25:04.035Z,78.75
2023-05-18T18:26:40.657Z,79.00
2023-05-18T18:28:15.430Z,77.80
2023-05-18T18:29:47.449Z,78.60
2023-05-18T18:31:21.015Z,77.80
2023-05-18T18:32:53.092Z,77.60
2023-05-18T18:34:25.024Z,75.00
2023-05-18T18:35:57.354Z,80.40
2023-05-18T18:37:29.476Z,78.40
2023-05-18T18:39:01.664Z,74.80
2023-05-18T18:40:36.761Z,68.20
2023-05-18T18:42:08.669Z,72.60
2023-05-18T18:43:40.695Z,71.80
2023-05-18T18:45:12.581Z,72.20
2023-05-18T18:46:45.216Z,71.20
2023-05-18T18:48:21.194Z,78.60
2023-05-18T18:49:53.143Z,80.00
2023-05-18T18:51:25.069Z,86.50
2023-05-18T18:52:56.975Z,86.75
2023-05-18T18:54:29.012Z,82.50
2023-05-18T18:56:01.138Z,81.00
2023-05-18T18:57:33.919Z,80.00
2023-05-18T18:59:05.950Z,85.00
2023-05-18T19:00:38.110Z,78.00
2023-05-18T19:02:10.096Z,73.80
2023-05-18T19:03:42.019Z,77.40
2023-05-18T19:05:14.063Z,78.80
2023-05-18T19:06:46.453Z,74.80
2023-05-18T19:08:18.375Z,73.40
2023-05-18T19:09:50.615Z,73.60
2023-05-18T19:11:23.646Z,73.00
2023-05-18T19:12:57.119Z,70.80
2023-05-18T19:14:28.962Z,70.80
2023-05-18T19:16:01.034Z,68.50
2023-05-18T19:17:33.071Z,70.40
2023-05-18T19:19:09.038Z,71.00
2023-05-18T19:20:41.025Z,62.50
2023-05-18T19:22:13.004Z,64.50
2023-05-18T19:23:44.844Z,72.20
2023-05-18T19:25:16.737Z,67.20
2023-05-18T19:26:48.658Z,60.50
2023-05-18T19:28:20.857Z,169.67
2023-05-18T19:29:52.834Z,154.00
2023-05-18T19:31:25.548Z,137.67
2023-05-18T19:32:57.605Z,122.25
2023-05-18T19:34:29.561Z,100.75
2023-05-18T19:36:02.551Z,95.50
2023-05-18T19:37:34.433Z,89.00
2023-05-18T19:39:06.682Z,84.25
2023-05-18T19:40:38.630Z,82.25
2023-05-18T19:42:10.532Z,87.00
2023-05-18T19:43:42.508Z,84.25
2023-05-18T19:45:14.429Z,81.25
2023-05-18T19:46:46.502Z,79.50
2023-05-18T19:48:18.490Z,77.20
2023-05-18T19:49:50.536Z,84.00
2023-05-18T19:51:22.640Z,82.75
2023-05-18T19:52:54.578Z,73.60
2023-05-18T19:54:26.509Z,73.40
2023-05-18T19:55:59.483Z,72.40
2023-05-18T19:57:31.446Z,71.40
2023-05-18T19:59:03.387Z,66.20
2023-05-18T20:00:35.388Z,66.50
2023-05-18T20:02:07.401Z,109.25
2023-05-18T20:03:43.022Z,66.25
2023-05-18T20:05:19.072Z,85.25
2023-05-18T20:06:52.065Z,82.50
2023-05-18T20:08:23.988Z,85.25
2023-05-18T20:09:56.056Z,83.50
2023-05-18T20:11:28.001Z,81.00
2023-05-18T20:13:00.254Z,75.00
2023-05-18T20:14:33.554Z,71.00
2023-05-18T20:16:06.668Z,73.60
2023-05-18T20:17:38.656Z,71.60
2023-05-18T20:19:12.104Z,71.60
2023-05-18T20:20:44.060Z,64.60
2023-05-18T20:22:17.152Z,66.00
2023-05-18T20:23:49.119Z,69.75
2023-05-18T20:25:21.071Z,68.00
2023-05-18T20:26:53.293Z,68.25
2023-05-18T20:28:27.128Z,69.80
2023-05-18T20:29:59.087Z,68.80
2023-05-18T20:31:31.039Z,68.20
2023-05-18T20:33:05.894Z,76.40
2023-05-18T20:34:37.855Z,70.60
2023-05-18T20:36:09.748Z,72.80
2023-05-18T20:37:41.717Z,74.20
2023-05-18T20:39:14.773Z,78.20
2023-05-18T20:40:51.173Z,61.00
2023-05-18T20:42:23.624Z,71.80
2023-05-18T20:43:56.028Z,74.00
2023-05-18T20:45:29.997Z,71.60
2023-05-18T20:47:02.780Z,75.60
2023-05-18T20:48:36.089Z,81.00
2023-05-18T20:50:09.292Z,74.80
2023-05-18T20:51:41.250Z,76.60
2023-05-18T20:53:13.113Z,69.00
2023-05-18T20:54:46.212Z,71.40
2023-05-18T20:56:19.088Z,88.75
2023-05-18T20:57:51.053Z,77.60
2023-05-18T20:59:22.900Z,72.00
2023-05-18T21:00:55.746Z,66.00
2023-05-18T21:02:27.676Z,65.25
2023-05-18T21:03:59.718Z,68.80
2023-05-18T21:05:32.242Z,71.60
2023-05-18T21:07:05.766Z,77.40
2023-05-18T21:08:37.646Z,63.20
2023-05-18T21:10:10.704Z,71.20
2023-05-18T21:11:42.740Z,74.20
2023-05-18T21:13:15.229Z,69.80
2023-05-18T21:14:47.102Z,66.75
2023-05-18T21:16:19.074Z,69.80
2023-05-18T21:17:51.124Z,67.60
2023-05-18T21:19:23.276Z,70.00
2023-05-18T21:20:57.454Z,76.20
2023-05-18T21:22:29.445Z,87.25
2023-05-18T21:24:01.452Z,77.75
2023-05-18T21:25:33.359Z,89.25
2023-05-18T21:27:05.583Z,85.00
2023-05-18T21:28:37.471Z,87.00
2023-05-18T21:30:10.042Z,87.75
2023-05-18T21:31:42.141Z,80.75
2023-05-18T21:33:14.239Z,82.00
2023-05-18T21:34:46.264Z,83.25
2023-05-18T21:36:20.901Z,79.50
2023-05-18T21:37:52.819Z,76.60
2023-05-18T21:39:24.689Z,78.80
2023-05-18T21:40:56.918Z,72.60
2023-05-18T21:42:28.818Z,73.40
2023-05-18T21:44:00.973Z,78.20
2023-05-18T21:45:32.881Z,72.80
2023-05-18T21:47:04.935Z,75.00
2023-05-18T21:48:36.924Z,72.80
2023-05-18T21:50:09.194Z,68.50
2023-05-18T21:51:41.293Z,65.00
2023-05-18T21:53:13.251Z,67.00
2023-05-18T21:54:45.167Z,68.50
2023-05-18T21:56:17.331Z,58.25
2023-05-18T21:57:49.198Z,64.50
2023-05-18T21:59:21.235Z,65.00
2023-05-18T22:00:53.174Z,57.50
2023-05-18T22:02:25.125Z,54.50
2023-05-18T22:03:57.064Z,58.75
2023-05-18T22:05:29.134Z,58.50
2023-05-18T22:07:01.067Z,54.50
2023-05-18T22:08:32.920Z,50.75
2023-05-18T22:10:05.267Z,51.25
2023-05-18T22:11:37.193Z,49.00
2023-05-18T22:13:09.506Z,51.75
2023-05-18T22:14:41.488Z,48.50
2023-05-18T22:16:13.510Z,48.25
2023-05-18T22:17:46.293Z,49.00
2023-05-18T22:19:18.309Z,44.00
2023-05-18T22:20:50.292Z,45.00
2023-05-18T22:22:30.164Z,43.25
2023-05-18T22:24:02.693Z,37.00
2023-05-18T22:25:34.557Z,37.00
2023-05-18T22:27:06.545Z,40.25
2023-05-18T22:28:38.430Z,38.50
2023-05-18T22:30:10.978Z,37.25
2023-05-18T22:31:42.928Z,35.00
2023-05-18T22:33:14.973Z,36.25
2023-05-18T22:34:46.892Z,34.00
